createdAt,value
2023-01-25T00:09:58.856Z,978.06
2023-01-25T00:25:01.491Z,978.11
2023-01-25T00:40:04.036Z,978.37
2023-01-25T00:55:07.055Z,978.56
2023-01-25T01:10:09.808Z,978.77
2023-01-25T01:25:12.266Z,978.88
2023-01-25T01:40:14.785Z,979.01
2023-01-25T01:55:17.192Z,979.11
2023-01-25T02:10:19.413Z,979.07
2023-01-25T02:25:21.945Z,979.05
2023-01-25T02:40:24.581Z,979.1
2023-01-25T02:55:27.158Z,979.22
2023-01-25T03:10:29.635Z,979.29
2023-01-25T03:25:31.989Z,979.27
2023-01-25T03:40:34.283Z,979.35
2023-01-25T03:55:36.706Z,979.53
2023-01-25T04:10:39.311Z,979.62
2023-01-25T04:25:41.728Z,979.87
2023-01-25T04:40:44.094Z,979.78
2023-01-25T04:55:46.409Z,979.78
2023-01-25T05:10:48.691Z,979.86
2023-01-25T05:25:51.094Z,979.8
2023-01-25T05:40:53.356Z,979.85
2023-01-25T05:55:55.638Z,979.76
2023-01-25T06:10:57.833Z,979.78
2023-01-25T06:26:00.271Z,979.75
2023-01-25T06:41:02.591Z,979.92
2023-01-25T06:56:04.995Z,979.92
2023-01-25T07:11:07.235Z,979.98
2023-01-25T07:26:09.526Z,979.91
2023-01-25T07:41:11.897Z,980.06
2023-01-25T07:56:14.221Z,980.28
2023-01-25T08:11:16.540Z,980.22
2023-01-25T08:26:18.919Z,980.07
2023-01-25T08:41:21.203Z,979.97
2023-01-25T08:56:23.455Z,979.96
2023-01-25T09:11:25.650Z,980.11
2023-01-25T09:26:27.931Z,980.12
2023-01-25T09:41:30.130Z,980.28
2023-01-25T09:56:32.492Z,980.31
2023-01-25T10:11:34.769Z,980.23
2023-01-25T10:26:37.105Z,980.18
2023-01-25T10:41:39.637Z,980.24
2023-01-25T10:56:41.889Z,980.39
2023-01-25T11:11:44.203Z,980.46
2023-01-25T11:26:46.414Z,980.52
2023-01-25T11:41:48.855Z,980.45
2023-01-25T11:56:51.122Z,980.6
2023-01-25T12:11:53.321Z,980.6
2023-01-25T12:26:55.615Z,980.53
2023-01-25T12:41:57.971Z,980.48
2023-01-25T12:57:00.178Z,980.55
2023-01-25T13:12:02.611Z,980.61
2023-01-25T13:27:04.895Z,980.59
2023-01-25T13:42:07.122Z,980.68
2023-01-25T13:57:09.375Z,980.87
2023-01-25T14:12:11.685Z,981.1
2023-01-25T14:27:13.984Z,981.09
2023-01-25T14:42:16.405Z,981.28
2023-01-25T14:57:18.678Z,981.32
2023-01-25T15:12:22.785Z,981.43
2023-01-25T15:27:25.169Z,981.56
2023-01-25T15:42:27.380Z,981.67
2023-01-25T15:57:29.612Z,981.85
2023-01-25T16:12:31.855Z,981.86
2023-01-25T16:27:34.128Z,982.04
2023-01-25T16:42:36.468Z,982.26
2023-01-25T16:57:38.689Z,982.39
2023-01-25T17:12:40.988Z,982.57
2023-01-25T17:27:43.235Z,982.56
2023-01-25T17:42:45.575Z,982.54
2023-01-25T17:57:47.889Z,982.68
2023-01-25T18:13:03.371Z,982.67
2023-01-25T18:28:06.705Z,982.55
2023-01-25T18:43:09.003Z,982.6
2023-01-25T18:58:11.187Z,982.56
2023-01-25T19:13:13.387Z,982.63
2023-01-25T19:28:15.609Z,982.61
2023-01-25T19:43:17.854Z,982.5
2023-01-25T19:58:20.038Z,982.33
2023-01-25T20:13:22.318Z,982.06
2023-01-25T20:28:24.688Z,982.1
2023-01-25T20:43:26.906Z,981.96
2023-01-25T20:58:29.103Z,981.77
2023-01-25T21:13:31.420Z,981.77
2023-01-25T21:28:33.629Z,981.66
2023-01-25T21:43:35.913Z,981.63
2023-01-25T21:58:38.104Z,981.47
2023-01-25T22:13:40.320Z,981.65
2023-01-25T22:28:42.591Z,981.79
2023-01-25T22:43:44.865Z,981.72
2023-01-25T22:58:47.123Z,981.49
2023-01-25T23:13:49.369Z,981.59
2023-01-25T23:28:51.696Z,981.55
2023-01-25T23:43:54.139Z,981.47
2023-01-25T23:58:56.355Z,981.54
